Portada
METAR-TAF:

METAR-TAF

Aeroports :

Phitsanulok, Tailàndia

latitud: 16-46-23N, longitud: 100-16-56E, altitud: 47 m

Observació

L'informe es va fer fa 6 hores i 21 minuts, a les 14:00 UTC
Vent 2 kt amb direcció variable
Temperatura 28°C
Humitat 70%
Pressió 1006 hPa
Visibilitat 10 km o més
Escasses núvols a una alçada de 2500 ft

METAR: VTPP 161400Z VRB02KT 9999 FEW025 28/22 Q1006 NOSIG

Hora: 03:21 (20:21 UTC)

Pronòstic

L'informe es va fer fa 3 hores i 21 minuts, a les 17:00 UTC
Pronòstic vàlid del 16 a les 18 UTC al 17 a les 18 UTC
Vent 5 kt del Sud-Oest
Visibilitat 10 km o més
Escasses núvols a una alçada de 2500 ft

TAF: VTPP 161700Z 1618/1718 23005KT 9999 FEW025

Observacions i pronòstics meteorològics de més de 4000 aeroports (METAR i TAF).

Les estacions disponibles són els punts grocs i vermells al mapa.

Posi el ratolí al punt desitjat per veure el nom de l'estació.

Feu clic per veure les observacions i els pronòstics meteorològics.

Per canviar el mapa: feu clic els botons verds amb una creu de color negre per apropar; al botó verd amb un guió per allunyar la imatge; o en les fletxes verdes per a mapes adjacents.


METAR-TAF: